Manor, PA

9:27 AM EST on January 31, 2015 (GMT -0500)
Sheridan Terrace | Change Station
CLOSE
Current Station
Personal Weather Station
Location: N. Huntingdon, PA
Elevation: 1017 ft
Nearby Weather Stations
Active Advisory: Winter Storm Watch

Elev 1017 ft 40.34 °N, 79.70 °W | Updated 8 seconds ago

Overcast
Overcast
15.3 °F
Feels Like 15 °F
N
1.4
Wind Variable Wind from SE
Gusts 2.9 mph

Today
High -- | Low -- °F
--% Chance of Precip.
Yesterday
High -- | Low -- °F
Precip. -- in
7:29 AM 5:35 PM
Waxing Gibbous, 90% visible
Pressure 30.43 in
Visibility 10.0 miles
Clouds Mostly Cloudy 3000 ft
Windchill 15 °F
Dew Point 7 °F
Humidity 68%
Rainfall 0.00 in
Snow Depth Not available.
UV 0 out of 12
Pollen .10 out of 12
Air Quality Not available.
Flu Activity Not available.
METAR KAGC 311353Z AUTO 20005KT 10SM BKN030 M12/M17 A3033 RMK AO2 SLP302 T11221167 TSNO

More Conditions Fewer Conditions

Pressure 30.43 in
Visibility 10.0 miles
Clouds Mostly Cloudy 3000 ft
Windchill 15 °F
Dew Point 7 °F
Humidity 68%
Rainfall 0.00 in
Snow Depth Not available.
UV 0 out of 12
Pollen .10 out of 12
Air Quality Not available.
Flu Activity Not available.
METAR KAGC 311353Z AUTO 20005KT 10SM BKN030 M12/M17 A3033 RMK AO2 SLP302 T11221167 TSNO

More Conditions Fewer Conditions

10-Day Weather Forecast

Almanac

Astronomy

Jan. 31, 2015 Rise Set
Actual Time
Civil Twilight
Nautical Twilight
Astronomical Twilight
Moon
Length of Visible Light
Length of Day
Tomorrow will be .
, % of the Moon is Illuminated

Today's Extremes

State Highs State Lows

Community

WunderPhotos

Upload Photos

1,792,058 photos uploaded!

WunderBlogs® & News

Nearby

Air Quality

  Air Quality AQ Index Pollutant
Not available.

Snow Depth

Station Depth Elevation

Earthquake Activity

City Distance Mag. Time & Date
Minimum magnitude displayed is 2.5.

Coastal Water Temperatures

Place Temperature

Nearby Weather Stations